Time;durP1;ratioP1;P1;durP2;ratioP2;P2;SDS_P1;SDS_P2;PMS_P1;PMS_P2;Temp;Humidity;BMP_temperature;BMP_pressure;BME280_temperature;BME280_humidity;BME280_pressure;Samples;Min_cycle;Max_cycle;Signal;HPM_P1;HPM_P2
2022/12/17 13:07:27;;;;;;;1.27;1.25;;;;;;;14.87;78.55;100933.19;5019199;28;20507;-80
2022/12/17 13:09:56;;;;;;;6.60;1.15;;;;;;;14.73;76.62;100940.41;5049213;28;20060;-80
2022/12/17 13:12:39;;;;;;;3.40;1.92;;;;;;;14.63;75.06;100931.81;5000344;28;20116;-81
2022/12/17 13:15:04;;;;;;;1.50;1.40;;;;;;;14.76;76.20;100947.31;5016445;28;20057;-81
2022/12/17 13:17:45;;;;;;;1.83;1.52;;;;;;;14.80;75.73;100944.00;5016494;28;20118;-81
2022/12/17 13:20:22;;;;;;;7.28;2.35;;;;;;;14.66;76.53;100943.09;5032856;28;20128;-80
2022/12/17 13:22:51;;;;;;;5.43;3.50;;;;;;;14.16;77.15;100946.84;5016292;28;20123;-81
2022/12/17 13:25:18;;;;;;;6.20;2.80;;;;;;;14.69;77.04;100945.41;4999797;28;20579;-79
2022/12/17 13:27:44;;;;;;;8.00;3.90;;;;;;;14.91;77.21;100923.66;5000006;28;20036;-81
2022/12/17 13:30:16;;;;;;;3.42;2.13;;;;;;;15.09;75.40;100921.25;5032649;28;20116;-80
2022/12/17 13:32:54;;;;;;;3.90;2.63;;;;;;;15.27;74.83;100933.38;5016320;28;20033;-81
2022/12/17 13:35:40;;;;;;;8.88;4.18;;;;;;;15.36;74.06;100922.19;5000759;28;20476;-82
2022/12/17 13:38:18;;;;;;;6.72;3.42;;;;;;;15.32;73.78;100915.50;5032306;28;20096;-81
2022/12/17 13:41:07;;;;;;;5.72;3.17;;;;;;;15.39;74.21;100916.34;5031986;28;20026;-81
2022/12/17 13:43:44;;;;;;;4.28;2.88;;;;;;;15.43;75.13;100918.66;5032530;28;20026;-81
2022/12/17 13:46:25;;;;;;;6.78;3.35;;;;;;;15.61;75.62;100897.22;5048947;28;20113;-81
2022/12/17 13:48:52;;;;;;;5.80;2.40;;;;;;;15.72;74.69;100895.84;5032207;28;20029;-81
2022/12/17 13:51:19;;;;;;;4.00;2.53;;;;;;;15.74;76.37;100891.03;5048926;28;20029;-81
2022/12/17 13:53:57;;;;;;;4.45;2.95;;;;;;;16.28;76.66;100890.00;5032408;28;20433;-81
2022/12/17 13:56:28;;;;;;;6.68;2.95;;;;;;;16.73;74.00;100881.16;5033464;28;20061;-81
2022/12/17 13:58:56;;;;;;;4.20;2.55;;;;;;;16.81;73.87;100881.78;5032183;28;20034;-81
2022/12/17 14:01:22;;;;;;;4.22;2.50;;;;;;;17.05;72.87;100885.66;5048844;28;20037;-82
2022/12/17 14:03:53;;;;;;;4.70;2.60;;;;;;;16.73;71.95;100878.44;5031947;28;20034;-82
2022/12/17 14:06:19;;;;;;;7.00;3.20;;;;;;;16.43;72.47;100882.47;5015861;28;20443;-80
2022/12/17 14:08:46;;;;;;;6.13;3.20;;;;;;;16.05;73.46;100872.28;5000998;28;20479;-79
2022/12/17 14:13:56;;;;;;;6.30;3.67;;;;;;;15.77;75.67;100880.63;5036155;28;20039;-81
2022/12/17 14:16:22;;;;;;;7.10;4.60;;;;;;;15.79;74.16;100883.09;5019763;28;20025;-80
2022/12/17 14:18:50;;;;;;;9.60;8.18;;;;;;;15.81;74.95;100871.00;5019360;28;20045;-81
2022/12/17 14:21:16;;;;;;;8.10;4.03;;;;;;;16.13;74.95;100882.06;5036092;28;20029;-81
2022/12/17 14:23:43;;;;;;;2.75;1.90;;;;;;;16.22;73.64;100878.13;5035769;28;20033;-81
2022/12/17 14:26:10;;;;;;;4.80;2.22;;;;;;;16.12;74.81;100872.28;5003293;28;20046;-81
2022/12/17 14:28:45;;;;;;;4.25;2.60;;;;;;;16.32;74.37;100880.38;5003290;28;20030;-81
2022/12/17 14:31:14;;;;;;;2.25;1.60;;;;;;;16.29;72.29;100885.41;5003042;28;20357;-80
2022/12/17 14:33:42;;;;;;;2.33;1.50;;;;;;;15.96;74.15;100881.66;5019542;28;20033;-80
2022/12/17 14:36:15;;;;;;;3.35;2.03;;;;;;;16.06;75.45;100883.94;5003303;28;20029;-80
2022/12/17 14:38:59;;;;;;;5.45;3.42;;;;;;;16.44;76.69;100877.88;5019298;28;20038;-80
2022/12/17 14:44:19;;;;;;;10.20;4.32;;;;;;;16.57;76.25;100890.59;5035791;28;20464;-81
2022/12/17 14:46:45;;;;;;;4.50;2.38;;;;;;;15.65;76.61;100890.38;5019247;28;20040;-81
2022/12/17 14:49:16;;;;;;;5.03;2.67;;;;;;;15.36;77.75;100881.53;5036832;28;20033;-81
2022/12/17 14:51:41;;;;;;;7.53;4.85;;;;;;;14.71;79.81;100869.41;5018984;28;20049;-80
2022/12/17 14:54:28;;;;;;;8.38;5.28;;;;;;;14.73;80.27;100880.88;5035338;28;20048;-81
2022/12/17 14:56:56;;;;;;;9.32;6.10;;;;;;;12.76;86.27;100875.88;5035509;28;20049;-80
2022/12/17 14:59:31;;;;;;;13.68;8.07;;;;;;;12.78;85.03;100870.31;5035209;28;20111;-80
2022/12/17 15:02:04;;;;;;;16.98;10.80;;;;;;;11.51;89.69;100856.69;5035449;28;20037;-80
2022/12/17 15:04:31;;;;;;;13.98;8.95;;;;;;;11.89;88.25;100862.13;5036190;28;20159;-81
2022/12/17 15:06:59;;;;;;;11.35;7.85;;;;;;;12.13;87.49;100871.00;5035429;28;20124;-80
2022/12/17 15:09:25;;;;;;;12.60;9.00;;;;;;;12.12;85.96;100869.31;5035090;28;20558;-80
2022/12/17 15:11:51;;;;;;;15.50;11.15;;;;;;;10.96;90.03;100860.38;5034866;28;20109;-80
2022/12/17 15:14:16;;;;;;;13.18;8.82;;;;;;;9.25;95.61;100867.63;5036147;28;20057;-80
2022/12/17 15:16:42;;;;;;;9.70;6.32;;;;;;;7.56;100.00;100870.84;5034650;28;20029;-77
2022/12/17 15:19:08;;;;;;;9.57;6.75;;;;;;;6.35;100.00;100870.09;5017974;28;20391;-76
2022/12/17 15:21:33;;;;;;;10.93;7.95;;;;;;;5.52;100.00;100869.81;5001128;28;20111;-77
2022/12/17 15:23:59;;;;;;;8.63;5.25;;;;;;;4.80;100.00;100871.78;5001940;28;20037;-77
2022/12/17 15:26:25;;;;;;;5.32;3.38;;;;;;;4.26;100.00;100861.47;5002081;28;20037;-78
2022/12/17 15:28:51;;;;;;;6.28;3.97;;;;;;;3.83;100.00;100859.81;5002039;28;20117;-77
2022/12/17 15:31:17;;;;;;;6.18;3.83;;;;;;;3.53;100.00;100869.41;5018214;28;20049;-77
2022/12/17 15:33:43;;;;;;;24.13;13.85;;;;;;;3.20;100.00;100867.69;5001823;28;20041;-77
2022/12/17 15:36:10;;;;;;;8.10;6.03;;;;;;;3.02;100.00;100865.59;5001605;28;20033;-77
2022/12/17 15:38:35;;;;;;;6.00;3.90;;;;;;;2.85;100.00;100858.97;5017553;28;20041;-78
2022/12/17 15:43:09;;;;;;;5.70;3.00;;;;;;;2.71;100.00;100875.19;5050939;28;20061;-77
2022/12/17 15:43:49;;;;;;;7.28;3.20;;;;;;;2.55;100.00;100878.19;5020635;28;20043;-77
2022/12/17 15:46:15;;;;;;;8.73;3.25;;;;;;;2.32;100.00;100876.50;5001570;28;20033;-79
2022/12/17 15:48:40;;;;;;;5.22;3.40;;;;;;;2.07;100.00;100875.75;5001548;28;20120;-77
2022/12/17 15:51:06;;;;;;;7.30;4.28;;;;;;;1.83;100.00;100864.38;5017872;28;20049;-77
2022/12/17 15:53:32;;;;;;;5.35;3.60;;;;;;;1.72;100.00;100874.00;5017779;28;20458;-77
2022/12/17 15:56:01;;;;;;;5.55;3.13;;;;;;;1.66;100.00;100874.44;5001465;28;20040;-77
2022/12/17 15:58:28;;;;;;;4.07;3.17;;;;;;;1.58;100.00;100865.38;5001404;28;20033;-77
2022/12/17 16:00:53;;;;;;;4.75;3.20;;;;;;;1.56;100.00;100869.94;5017352;28;20494;-77
2022/12/17 16:03:19;;;;;;;5.80;3.45;;;;;;;1.46;100.00;100872.47;5001072;28;20029;-78
2022/12/17 16:05:45;;;;;;;4.57;2.80;;;;;;;1.26;100.00;100864.16;5017323;28;20045;-77
2022/12/17 16:08:11;;;;;;;5.32;3.35;;;;;;;1.07;100.00;100858.53;5017439;28;20387;-76
2022/12/17 16:10:37;;;;;;;5.07;3.10;;;;;;;0.91;100.00;100876.50;5001020;28;20045;-78
2022/12/17 16:13:03;;;;;;;20.90;9.05;;;;;;;0.68;100.00;100881.63;5001272;28;20040;-77
2022/12/17 16:15:29;;;;;;;7.28;4.15;;;;;;;0.50;100.00;100870.53;5000902;28;20038;-76
2022/12/17 16:17:55;;;;;;;7.78;4.15;;;;;;;0.36;100.00;100882.09;5017437;28;20041;-76
2022/12/17 16:20:21;;;;;;;8.75;3.95;;;;;;;0.21;100.00;100877.88;5001026;28;20044;-77
2022/12/17 16:22:46;;;;;;;11.05;4.45;;;;;;;0.14;100.00;100873.97;5017382;28;20037;-76
2022/12/17 16:25:12;;;;;;;10.27;5.07;;;;;;;0.12;100.00;100865.28;5017178;28;20507;-76
2022/12/17 16:27:41;;;;;;;10.77;4.88;;;;;;;0.10;100.00;100860.09;5016890;28;20030;-76
2022/12/17 16:30:08;;;;;;;9.45;4.57;;;;;;;0.00;100.00;100848.50;5033250;28;20025;-77
2022/12/17 16:32:34;;;;;;;9.80;5.25;;;;;;;0.04;100.00;100857.03;5000750;28;20025;-76
2022/12/17 16:34:59;;;;;;;8.80;4.25;;;;;;;-0.08;100.00;100856.94;5033117;28;20056;-77
2022/12/17 16:37:25;;;;;;;9.75;4.95;;;;;;;-0.28;100.00;100855.66;5016977;28;20033;-77
2022/12/17 16:39:51;;;;;;;8.38;4.68;;;;;;;-0.40;100.00;100855.63;5016846;28;20029;-77
2022/12/17 16:42:17;;;;;;;9.88;4.65;;;;;;;-0.58;100.00;100849.75;5049949;28;20184;-76
2022/12/17 16:44:42;;;;;;;8.30;4.32;;;;;;;-0.78;100.00;100844.00;5017094;28;20025;-77
2022/12/17 16:47:09;;;;;;;9.00;4.32;;;;;;;-0.76;100.00;100849.22;5016874;28;20044;-77
2022/12/17 16:49:35;;;;;;;8.07;4.35;;;;;;;-0.87;100.00;100852.56;5032836;28;20042;-76
2022/12/17 16:52:02;;;;;;;7.10;4.25;;;;;;;-0.95;100.00;100845.13;5033292;28;20163;-76
2022/12/17 16:54:30;;;;;;;8.73;5.63;;;;;;;-0.84;100.00;100838.31;5016756;28;20041;-76
2022/12/17 16:56:55;;;;;;;10.10;4.38;;;;;;;-0.74;100.00;100853.44;5000419;28;20033;-77
2022/12/17 16:59:22;;;;;;;10.40;4.75;;;;;;;-0.71;100.00;100842.66;5016668;28;20032;-76
2022/12/17 17:01:49;;;;;;;9.15;4.72;;;;;;;-0.74;100.00;100839.38;5049351;28;20026;-77
2022/12/17 17:04:17;;;;;;;7.25;4.70;;;;;;;-0.80;100.00;100831.84;5033076;28;20088;-75
2022/12/17 17:06:46;;;;;;;11.70;4.93;;;;;;;-0.84;100.00;100825.94;5032751;28;20051;-76
2022/12/17 17:09:13;;;;;;;10.57;5.50;;;;;;;-0.71;100.00;100829.47;5000123;28;20095;-76
2022/12/17 17:11:39;;;;;;;7.13;4.45;;;;;;;-0.63;100.00;100826.31;5000097;28;20041;-76
2022/12/17 17:14:05;;;;;;;11.82;4.55;;;;;;;-0.49;100.00;100822.75;5016501;28;20103;-76
2022/12/17 17:16:33;;;;;;;8.65;5.07;;;;;;;-0.51;100.00;100807.00;5032362;28;20040;-77
2022/12/17 17:18:59;;;;;;;11.70;5.90;;;;;;;-0.50;100.00;100808.72;5032357;28;20033;-76
2022/12/17 17:21:29;;;;;;;6.90;3.78;;;;;;;-0.43;100.00;100808.28;5032498;28;20037;-76
2022/12/17 17:24:00;;;;;;;5.13;4.05;;;;;;;-0.39;100.00;100815.06;5016232;28;20052;-76
2022/12/17 17:26:28;;;;;;;7.75;4.43;;;;;;;-0.51;100.00;100819.34;5016495;28;20029;-76
2022/12/17 17:28:54;;;;;;;9.07;4.35;;;;;;;-0.65;100.00;100816.81;5000054;28;20073;-77
2022/12/17 17:31:20;;;;;;;6.88;3.78;;;;;;;-0.81;100.00;100820.47;4999995;28;20152;-76
2022/12/17 17:33:47;;;;;;;5.25;3.20;;;;;;;-0.79;100.00;100817.72;4999726;28;20025;-77
2022/12/17 17:36:15;;;;;;;7.70;3.65;;;;;;;-0.85;100.00;100823.41;5015701;28;20078;-76
2022/12/17 17:38:40;;;;;;;10.80;5.20;;;;;;;-1.00;100.00;100823.47;5032531;28;20415;-77
2022/12/17 17:41:09;;;;;;;11.30;5.63;;;;;;;-1.08;100.00;100828.41;5015871;28;20506;-76
2022/12/17 17:43:35;;;;;;;11.70;6.43;;;;;;;-1.16;100.00;100826.25;5015465;28;20041;-77
2022/12/17 17:46:15;;;;;;;18.88;7.60;;;;;;;-1.26;100.00;100819.88;5016046;28;20387;-76
2022/12/17 17:48:42;;;;;;;18.25;8.55;;;;;;;-1.22;100.00;100831.91;4999368;28;20499;-77
2022/12/17 17:51:11;;;;;;;19.02;8.48;;;;;;;-1.39;100.00;100811.03;4999366;28;20388;-76
2022/12/17 17:53:37;;;;;;;12.25;5.82;;;;;;;-1.40;100.00;100833.94;5015724;28;20041;-77
2022/12/17 17:56:13;;;;;;;12.02;6.43;;;;;;;-1.47;100.00;100837.91;5031995;28;20513;-76
2022/12/17 17:58:43;;;;;;;12.82;6.25;;;;;;;-1.21;100.00;100827.50;5032184;28;20029;-77
2022/12/17 18:01:17;;;;;;;15.93;7.65;;;;;;;-1.17;100.00;100819.25;4999940;28;20131;-76
2022/12/17 18:03:43;;;;;;;8.90;4.55;;;;;;;-1.26;100.00;100816.38;5032433;28;20033;-76
2022/12/17 18:06:10;;;;;;;8.13;5.47;;;;;;;-1.35;100.00;100809.88;4999347;28;20034;-77
2022/12/17 18:08:39;;;;;;;10.50;5.28;;;;;;;-1.46;100.00;100815.84;5048167;28;20151;-76
2022/12/17 18:11:07;;;;;;;16.73;7.07;;;;;;;-1.58;100.00;100827.19;5032075;28;20040;-75
2022/12/17 18:16:18;;;;;;;10.77;6.07;;;;;;;-1.79;100.00;100800.38;5017933;28;20029;-77
2022/12/17 18:18:44;;;;;;;9.70;5.72;;;;;;;-1.60;100.00;100839.63;4999088;28;20471;-76
2022/12/17 18:21:15;;;;;;;7.75;5.18;;;;;;;-1.67;100.00;100825.09;5015481;28;20033;-76
2022/12/17 18:23:41;;;;;;;16.25;7.82;;;;;;;-1.64;100.00;100838.97;5031518;28;20037;-76
2022/12/17 18:26:14;;;;;;;10.10;5.63;;;;;;;-1.75;100.00;100806.28;5032043;28;20036;-76
2022/12/17 18:28:41;;;;;;;8.35;4.38;;;;;;;-1.56;100.00;100836.69;4999236;28;20040;-76
2022/12/17 18:31:11;;;;;;;9.70;4.18;;;;;;;-1.46;100.00;100831.66;4999307;28;20064;-76
2022/12/17 18:33:38;;;;;;;8.40;4.70;;;;;;;-1.32;100.00;100830.81;4999356;28;20112;-75
2022/12/17 18:36:10;;;;;;;9.93;5.53;;;;;;;-1.34;100.00;100817.72;5031758;28;20028;-75
2022/12/17 18:38:37;;;;;;;9.47;5.13;;;;;;;-1.26;100.00;100816.38;5031435;28;20087;-76
2022/12/17 18:43:59;;;;;;;9.98;6.10;;;;;;;-1.11;100.00;100818.88;5018057;28;20487;-76
2022/12/17 18:46:26;;;;;;;9.00;5.53;;;;;;;-1.06;100.00;100812.44;4998910;28;20549;-76
2022/12/17 18:48:52;;;;;;;11.80;6.82;;;;;;;-1.01;100.00;100811.19;5031633;28;20021;-77
2022/12/17 18:51:21;;;;;;;10.50;5.68;;;;;;;-1.03;100.00;100821.03;5031525;28;20037;-75
2022/12/17 18:53:47;;;;;;;8.27;5.78;;;;;;;-1.11;100.00;100794.28;4998911;28;20065;-76
2022/12/17 18:56:13;;;;;;;9.43;6.25;;;;;;;-1.08;100.00;100799.38;5049960;28;20103;-76
2022/12/17 18:58:39;;;;;;;9.40;5.43;;;;;;;-1.08;100.00;100799.38;5002186;28;20430;-76
2022/12/17 19:01:07;;;;;;;9.40;5.45;;;;;;;-1.08;100.00;100796.72;5002533;28;20037;-76
2022/12/17 19:03:33;;;;;;;11.43;5.63;;;;;;;-1.13;100.00;100798.81;5003171;28;20049;-76
2022/12/17 19:06:04;;;;;;;9.40;5.20;;;;;;;-1.16;100.00;100777.91;5002422;28;20029;-77
2022/12/17 19:08:33;;;;;;;11.88;5.60;;;;;;;-1.17;100.00;100782.31;5035230;28;20037;-76
2022/12/17 19:11:07;;;;;;;10.48;4.90;;;;;;;-1.46;100.00;100739.38;5035106;28;20033;-76
2022/12/17 19:13:33;;;;;;;;;;;;;;;-1.31;100.00;100778.91;5018778;28;20026;-75
2022/12/17 19:16:07;;;;;;;6.93;4.43;;;;;;;-1.37;100.00;100769.59;5051380;28;19916;-76
2022/12/17 19:18:33;;;;;;;8.90;5.07;;;;;;;-1.36;100.00;100769.47;5018326;28;20063;-78
2022/12/17 19:20:59;;;;;;;10.63;6.18;;;;;;;-1.32;100.00;100770.16;5002364;28;20124;-76
2022/12/17 19:23:25;;;;;;;7.85;5.18;;;;;;;-1.29;100.00;100759.41;5035018;28;20034;-77
2022/12/17 19:25:51;;;;;;;9.20;5.18;;;;;;;-1.35;100.00;100768.56;5034939;28;20045;-78
2022/12/17 19:28:17;;;;;;;10.65;5.88;;;;;;;-1.37;100.00;100770.44;5002154;28;20380;-75
2022/12/17 19:30:43;;;;;;;10.77;6.13;;;;;;;-1.45;100.00;100767.44;5034621;28;20095;-78
2022/12/17 19:33:09;;;;;;;12.45;6.75;;;;;;;-1.46;100.00;100780.72;5002132;28;20327;-78
2022/12/17 19:35:35;;;;;;;13.27;7.00;;;;;;;-1.41;100.00;100778.63;5018352;28;20037;-78
2022/12/17 19:38:01;;;;;;;14.77;7.03;;;;;;;-1.30;100.00;100775.31;5017870;28;20467;-76
2022/12/17 19:40:27;;;;;;;10.65;6.50;;;;;;;-1.29;100.00;100777.03;5001665;28;20037;-76
2022/12/17 19:42:56;;;;;;;10.95;5.78;;;;;;;-1.35;100.00;100763.28;5034419;28;20034;-79
2022/12/17 19:45:22;;;;;;;12.98;7.32;;;;;;;-1.31;100.00;100771.81;5017796;28;20502;-78
2022/12/17 19:47:48;;;;;;;7.63;4.38;;;;;;;-1.37;100.00;100751.97;5017512;28;20490;-78
2022/12/17 19:50:14;;;;;;;13.43;7.15;;;;;;;-1.40;100.00;100753.97;5017744;28;20109;-77
2022/12/17 19:52:40;;;;;;;17.05;6.90;;;;;;;-1.37;100.00;100753.78;5017528;28;20029;-78
2022/12/17 19:55:06;;;;;;;8.38;6.40;;;;;;;-1.28;100.00;100749.69;5001659;28;20120;-75
2022/12/17 19:57:35;;;;;;;14.18;7.07;;;;;;;-1.30;100.00;100748.94;5033706;28;20451;-79
2022/12/17 20:00:00;;;;;;;9.68;5.40;;;;;;;-1.16;100.00;100757.66;5001092;28;20116;-76
2022/12/17 20:02:26;;;;;;;11.65;7.57;;;;;;;-1.11;100.00;100744.16;5001304;28;20037;-76
2022/12/17 20:04:52;;;;;;;16.42;7.03;;;;;;;-1.03;100.00;100747.13;5017775;28;20140;-76
2022/12/17 20:07:18;;;;;;;11.55;6.40;;;;;;;-0.95;100.00;100741.34;5017176;28;20030;-76
2022/12/17 20:09:44;;;;;;;11.55;6.45;;;;;;;-0.88;100.00;100740.81;5017665;28;20357;-76
2022/12/17 20:12:10;;;;;;;16.55;7.53;;;;;;;-0.88;100.00;100732.88;5001261;28;20043;-76
2022/12/17 20:14:36;;;;;;;13.52;6.28;;;;;;;-0.84;100.00;100732.72;5017008;28;20025;-76
2022/12/17 20:17:03;;;;;;;9.82;6.03;;;;;;;-0.81;100.00;100732.50;5001094;28;20094;-76
2022/12/17 20:19:31;;;;;;;10.52;6.72;;;;;;;-0.85;100.00;100723.91;5000890;28;20038;-76
2022/12/17 20:21:58;;;;;;;14.55;9.18;;;;;;;-0.72;100.00;100727.41;5000853;28;20554;-76
2022/12/17 20:24:23;;;;;;;14.48;10.15;;;;;;;-0.70;100.00;100711.50;5017214;28;20057;-75
2022/12/17 20:26:51;;;;;;;8.63;5.05;;;;;;;-0.62;100.00;100717.09;5016824;28;20052;-76
2022/12/17 20:29:18;;;;;;;12.18;5.65;;;;;;;-0.57;100.00;100717.63;5016833;28;20128;-75
2022/12/17 20:31:46;;;;;;;11.13;5.95;;;;;;;-0.58;100.00;100726.50;5000850;28;20041;-76
2022/12/17 20:34:14;;;;;;;10.13;6.20;;;;;;;-0.61;100.00;100725.84;5033087;28;20373;-75
2022/12/17 20:36:40;;;;;;;8.73;5.50;;;;;;;-0.59;100.00;100727.44;5016674;28;20033;-75
2022/12/17 20:39:06;;;;;;;8.85;5.82;;;;;;;-0.54;100.00;100725.34;5000471;28;20022;-75
2022/12/17 20:41:33;;;;;;;9.93;6.50;;;;;;;-0.57;100.00;100717.63;5016707;28;20048;-76
2022/12/17 20:44:07;;;;;;;8.73;6.20;;;;;;;-0.51;100.00;100732.19;5032985;28;20482;-76
2022/12/17 20:46:35;;;;;;;;;;;;;;;-0.39;100.00;100727.88;5049838;28;20037;-75
2022/12/17 20:49:02;;;;;;;15.40;10.98;;;;;;;-0.30;100.00;100717.50;5032828;28;20355;-75
2022/12/17 20:51:28;;;;;;;8.27;6.88;;;;;;;-0.21;100.00;100713.41;5032750;28;20038;-76
2022/12/17 20:53:55;;;;;;;13.65;8.07;;;;;;;-0.14;100.00;100704.06;5016445;28;20510;-75
2022/12/17 20:56:23;;;;;;;18.35;12.07;;;;;;;0.07;100.00;100703.50;5016381;28;20041;-75
2022/12/17 20:58:58;;;;;;;18.15;10.88;;;;;;;0.29;100.00;100701.00;5000191;28;20057;-76
2022/12/17 21:01:25;;;;;;;23.20;12.43;;;;;;;0.51;100.00;100704.75;5032958;28;20029;-76
2022/12/17 21:03:53;;;;;;;17.23;10.93;;;;;;;0.81;100.00;100705.09;5000530;28;20539;-75
2022/12/17 21:06:28;;;;;;;15.77;8.45;;;;;;;0.82;100.00;100671.53;5033040;28;20038;-76
2022/12/17 21:08:57;;;;;;;21.45;9.82;;;;;;;1.04;100.00;100681.38;5032586;28;20060;-75
2022/12/17 21:11:26;;;;;;;11.32;6.05;;;;;;;1.29;100.00;100689.09;5000545;28;20045;-74
2022/12/17 21:13:53;;;;;;;15.38;7.97;;;;;;;1.35;100.00;100673.69;5016262;28;20025;-75
2022/12/17 21:16:21;;;;;;;15.88;8.40;;;;;;;1.40;100.00;100676.84;5000134;28;20030;-76
2022/12/17 21:18:47;;;;;;;35.50;14.38;;;;;;;1.46;100.00;100671.09;5031852;28;20032;-75
2022/12/17 21:21:17;;;;;;;23.67;12.10;;;;;;;1.36;100.00;100676.25;5016111;28;20034;-76
2022/12/17 21:23:44;;;;;;;21.40;11.70;;;;;;;1.25;100.00;100673.59;5032423;28;20044;-75
2022/12/17 21:26:13;;;;;;;23.98;12.50;;;;;;;1.20;100.00;100676.56;5016271;28;20079;-76
2022/12/17 21:28:43;;;;;;;24.77;13.20;;;;;;;1.28;100.00;100660.94;4999361;28;20391;-75
2022/12/17 21:31:18;;;;;;;18.63;9.73;;;;;;;1.48;100.00;100669.13;5031958;28;20464;-76
2022/12/17 21:33:46;;;;;;;28.10;13.93;;;;;;;1.47;100.00;100662.16;5015837;28;20042;-75
2022/12/17 21:36:13;;;;;;;24.30;14.20;;;;;;;1.38;100.00;100654.94;5016520;28;20042;-75
2022/12/17 21:38:39;;;;;;;29.35;15.38;;;;;;;1.34;100.00;100656.13;5032405;28;20032;-75
2022/12/17 21:41:07;;;;;;;30.08;14.35;;;;;;;1.44;100.00;100657.94;5015923;28;20391;-76
2022/12/17 21:43:35;;;;;;;36.03;16.58;;;;;;;1.41;100.00;100657.34;5032304;28;20040;-75
2022/12/17 21:46:02;;;;;;;44.03;18.98;;;;;;;1.44;100.00;100665.06;5016164;28;20033;-75
2022/12/17 21:48:28;;;;;;;32.92;16.95;;;;;;;1.46;100.00;100663.13;5032293;28;20113;-76
2022/12/17 21:50:54;;;;;;;37.13;20.40;;;;;;;1.38;100.00;100653.13;5015859;28;20111;-75
2022/12/17 21:53:20;;;;;;;33.42;18.48;;;;;;;1.33;100.00;100657.09;4999502;28;20467;-75
2022/12/17 21:55:47;;;;;;;38.42;21.65;;;;;;;1.36;100.00;100667.47;5015862;28;20037;-75
2022/12/17 21:58:14;;;;;;;31.25;17.92;;;;;;;1.28;100.00;100650.34;5032074;28;20038;-75
2022/12/17 22:00:41;;;;;;;38.65;19.15;;;;;;;0.99;100.00;100619.97;5016015;28;20040;-75
2022/12/17 22:03:07;;;;;;;37.15;20.08;;;;;;;1.22;100.00;100655.28;5015868;28;20037;-76
2022/12/17 22:05:36;;;;;;;43.30;19.00;;;;;;;1.28;100.00;100642.41;5015798;28;20128;-76
2022/12/17 22:08:03;;;;;;;40.97;21.75;;;;;;;1.36;100.00;100640.97;4999428;28;20029;-76
2022/12/17 22:10:29;;;;;;;41.30;21.48;;;;;;;1.39;100.00;100641.56;4999222;28;20406;-76
2022/12/17 22:15:47;;;;;;;57.80;24.33;;;;;;;1.45;100.00;100629.63;5018699;28;20059;-78
2022/12/17 22:18:12;;;;;;;14.88;8.60;;;;;;;1.41;100.00;100641.44;4999417;28;20029;-76
2022/12/17 22:20:38;;;;;;;26.33;13.18;;;;;;;1.33;100.00;100617.38;5015702;28;20034;-75
2022/12/17 22:23:04;;;;;;;22.67;14.18;;;;;;;1.34;100.00;100627.81;5015685;28;20487;-76
2022/12/17 22:25:30;;;;;;;16.98;10.93;;;;;;;1.44;100.00;100620.00;5015633;28;20486;-77
2022/12/17 22:27:55;;;;;;;16.67;11.00;;;;;;;1.40;100.00;100623.84;4999263;28;20125;-76
2022/12/17 22:33:08;;;;;;;15.90;10.05;;;;;;;1.31;100.00;100607.72;5021966;28;20037;-76
2022/12/17 22:35:36;;;;;;;12.68;8.35;;;;;;;1.32;100.00;100613.84;5019704;28;20399;-76
2022/12/17 22:38:04;;;;;;;14.38;8.52;;;;;;;1.38;100.00;100604.59;5019299;28;20041;-76
2022/12/17 22:40:31;;;;;;;12.00;5.82;;;;;;;1.38;100.00;100600.16;5035434;28;20040;-76
2022/12/17 22:45:41;;;;;;;13.23;7.30;;;;;;;1.51;100.00;100597.38;5021727;28;20057;-77
2022/12/17 22:48:08;;;;;;;7.65;5.63;;;;;;;1.50;100.00;100590.38;5019079;28;20033;-76
2022/12/17 22:50:34;;;;;;;9.60;6.22;;;;;;;1.60;100.00;100591.34;5035117;28;20380;-76
2022/12/17 22:53:00;;;;;;;11.63;7.20;;;;;;;1.65;100.00;100578.56;5018918;28;20464;-76
2022/12/17 22:55:27;;;;;;;9.38;6.72;;;;;;;1.75;100.00;100560.97;5051651;28;20026;-76
2022/12/17 22:57:52;;;;;;;3.45;2.92;;;;;;;1.96;100.00;100570.78;5034571;28;20025;-76
2022/12/17 23:00:24;;;;;;;12.68;6.68;;;;;;;2.00;100.00;100566.91;5002577;28;20033;-76
2022/12/17 23:02:53;;;;;;;10.38;6.57;;;;;;;2.10;100.00;100572.31;5034983;28;20033;-76
2022/12/17 23:05:23;;;;;;;11.10;6.53;;;;;;;2.09;100.00;100571.47;5035221;28;20112;-76
2022/12/17 23:07:49;;;;;;;10.20;6.05;;;;;;;2.05;100.00;100562.06;5034905;28;20025;-76
2022/12/17 23:10:15;;;;;;;15.70;6.10;;;;;;;2.11;100.00;100556.25;5034719;28;20099;-76
2022/12/17 23:12:51;;;;;;;10.13;6.72;;;;;;;2.14;100.00;100550.72;5002567;28;20037;-76
2022/12/17 23:15:17;;;;;;;11.45;6.00;;;;;;;2.11;100.00;100542.16;5034905;28;20029;-76
2022/12/17 23:17:43;;;;;;;9.27;4.82;;;;;;;2.07;100.00;100549.53;5018723;28;20048;-76
2022/12/17 23:20:09;;;;;;;7.75;3.88;;;;;;;2.04;100.00;100535.66;5018413;28;20028;-76
2022/12/17 23:22:35;;;;;;;12.32;4.68;;;;;;;2.10;100.00;100536.00;5018776;28;20092;-76
2022/12/17 23:25:01;;;;;;;7.70;4.28;;;;;;;2.12;100.00;100536.75;5002362;28;20435;-76
2022/12/17 23:27:27;;;;;;;8.60;4.85;;;;;;;2.11;100.00;100531.56;5018172;28;20072;-76
2022/12/17 23:29:53;;;;;;;7.63;4.25;;;;;;;2.14;100.00;100534.81;5034414;28;20041;-75
2022/12/17 23:32:19;;;;;;;3.75;2.78;;;;;;;2.18;100.00;100525.63;5002234;28;20041;-76
2022/12/17 23:34:44;;;;;;;6.55;3.55;;;;;;;2.35;100.00;100529.50;5018417;28;20052;-76
2022/12/17 23:37:10;;;;;;;10.20;4.38;;;;;;;2.38;100.00;100512.47;5001639;28;20033;-76
2022/12/17 23:39:36;;;;;;;16.85;5.78;;;;;;;2.33;100.00;100512.88;5001785;28;20369;-77
2022/12/17 23:42:01;;;;;;;8.18;4.68;;;;;;;2.46;100.00;100510.06;5001025;28;20048;-76
2022/12/17 23:44:27;;;;;;;7.45;4.20;;;;;;;2.50;100.00;100506.16;5034076;28;20079;-77
2022/12/17 23:46:53;;;;;;;10.98;5.43;;;;;;;2.56;100.00;100500.31;5017633;28;20026;-76
2022/12/17 23:49:19;;;;;;;13.35;6.38;;;;;;;2.61;100.00;100494.63;5018251;28;20049;-76
2022/12/17 23:51:44;;;;;;;14.27;6.75;;;;;;;2.67;100.00;100496.75;5001689;28;20045;-77
2022/12/17 23:54:10;;;;;;;9.45;6.82;;;;;;;2.76;100.00;100488.00;5001702;28;20033;-76
2022/12/17 23:56:37;;;;;;;11.95;8.07;;;;;;;2.79;100.00;100481.59;5001642;28;20037;-76
2022/12/17 23:59:03;;;;;;;8.90;6.68;;;;;;;2.94;100.00;100490.88;5017766;28;20473;-77
